createdAt,value
2018-08-16T00:02:02.613Z,13.00
2018-08-16T00:05:07.166Z,13.00
2018-08-16T00:08:11.669Z,13.10
2018-08-16T00:11:16.346Z,13.10
2018-08-16T00:14:20.799Z,13.20
2018-08-16T00:17:25.526Z,12.90
2018-08-16T00:20:30.044Z,12.90
2018-08-16T00:23:34.390Z,13.10
2018-08-16T00:26:38.896Z,13.20
2018-08-16T00:29:43.261Z,13.20
2018-08-16T00:32:48.127Z,13.20
2018-08-16T00:35:52.837Z,13.10
2018-08-16T00:38:57.896Z,13.10
2018-08-16T00:42:02.524Z,13.00
2018-08-16T00:45:07.891Z,12.80
2018-08-16T00:48:12.318Z,12.70
2018-08-16T00:51:16.507Z,12.80
2018-08-16T00:54:20.824Z,12.80
2018-08-16T00:57:25.355Z,12.90
2018-08-16T01:00:30.794Z,12.80
2018-08-16T01:03:35.390Z,12.60
2018-08-16T01:06:39.843Z,12.80
2018-08-16T01:09:44.324Z,12.60
2018-08-16T01:12:49.010Z,12.40
2018-08-16T01:15:53.525Z,12.50
2018-08-16T01:18:58.138Z,12.40
2018-08-16T01:22:03.644Z,12.50
2018-08-16T01:25:10.935Z,12.40
2018-08-16T01:28:15.516Z,12.30
2018-08-16T01:31:20.131Z,12.30
2018-08-16T01:34:24.620Z,12.30
2018-08-16T01:37:29.007Z,12.50
2018-08-16T01:40:33.591Z,12.50
2018-08-16T01:43:38.150Z,12.50
2018-08-16T01:46:42.574Z,12.40
2018-08-16T01:49:46.741Z,12.30
2018-08-16T01:52:51.509Z,12.30
2018-08-16T01:55:55.942Z,12.10
2018-08-16T01:59:00.351Z,12.10
2018-08-16T02:02:05.156Z,12.10
2018-08-16T02:05:09.588Z,11.90
2018-08-16T02:08:14.237Z,11.80
2018-08-16T02:11:18.620Z,11.90
2018-08-16T02:14:23.190Z,11.90
2018-08-16T02:17:27.623Z,11.90
2018-08-16T02:20:32.162Z,11.80
2018-08-16T02:23:37.413Z,12.00
2018-08-16T02:26:41.732Z,12.10
2018-08-16T02:29:46.234Z,11.90
2018-08-16T02:32:50.718Z,11.80
2018-08-16T02:35:55.069Z,11.90
2018-08-16T02:39:00.806Z,11.80
2018-08-16T02:42:05.587Z,11.90
2018-08-16T02:45:09.941Z,12.00
2018-08-16T02:48:14.343Z,12.00
2018-08-16T02:51:18.793Z,11.80
2018-08-16T02:54:23.564Z,11.80
2018-08-16T02:57:28.368Z,11.80
2018-08-16T03:00:32.983Z,11.70
2018-08-16T03:03:37.263Z,11.60
2018-08-16T03:06:41.728Z,11.50
2018-08-16T03:09:45.942Z,11.40
2018-08-16T03:12:51.018Z,11.40
2018-08-16T03:15:55.668Z,11.40
2018-08-16T03:19:05.693Z,11.30
2018-08-16T03:22:10.085Z,11.50
2018-08-16T03:25:14.254Z,11.70
2018-08-16T03:28:18.487Z,11.70
2018-08-16T03:31:23.194Z,11.90
2018-08-16T03:34:27.681Z,11.80
2018-08-16T03:37:32.031Z,11.50
2018-08-16T03:40:36.437Z,11.50
2018-08-16T03:43:41.400Z,11.50
2018-08-16T03:46:46.003Z,11.60
2018-08-16T03:49:50.574Z,11.60
2018-08-16T03:52:55.030Z,11.30
2018-08-16T03:55:59.468Z,11.20
2018-08-16T03:59:03.932Z,11.60
2018-08-16T04:02:08.406Z,11.50
2018-08-16T04:05:12.874Z,11.40
2018-08-16T04:08:17.336Z,11.40
2018-08-16T04:11:21.738Z,11.30
2018-08-16T04:14:26.529Z,11.30
2018-08-16T04:17:34.449Z,11.20
2018-08-16T04:20:39.202Z,11.20
2018-08-16T04:23:43.830Z,11.30
2018-08-16T04:26:48.271Z,11.20
2018-08-16T04:29:52.886Z,11.30
2018-08-16T04:32:57.483Z,11.40
2018-08-16T04:36:02.734Z,11.50
2018-08-16T04:39:09.051Z,11.40
2018-08-16T04:42:13.396Z,11.40
2018-08-16T04:45:18.056Z,11.40
2018-08-16T04:48:22.464Z,11.50
2018-08-16T04:51:27.016Z,11.50
2018-08-16T04:54:31.662Z,11.50
2018-08-16T04:57:36.463Z,11.70
2018-08-16T05:00:41.525Z,11.70
2018-08-16T05:03:46.217Z,11.90
2018-08-16T05:06:50.469Z,12.00
2018-08-16T05:09:54.681Z,12.20
2018-08-16T05:12:58.815Z,12.20
2018-08-16T05:16:04.031Z,12.10
2018-08-16T05:19:08.450Z,12.30
2018-08-16T05:22:13.973Z,12.40
2018-08-16T05:25:18.433Z,12.60
2018-08-16T05:28:22.902Z,12.80
2018-08-16T05:31:27.921Z,12.80
2018-08-16T05:34:32.550Z,13.10
2018-08-16T05:37:39.057Z,13.20
2018-08-16T05:40:43.858Z,13.30
2018-08-16T05:43:48.905Z,13.50
2018-08-16T05:46:54.325Z,13.60
2018-08-16T05:49:59.358Z,13.70
2018-08-16T05:53:04.207Z,13.80
2018-08-16T05:56:08.731Z,13.90
2018-08-16T05:59:13.898Z,14.00
2018-08-16T06:02:18.993Z,13.90
2018-08-16T06:05:23.748Z,13.90
2018-08-16T06:08:28.596Z,14.20
2018-08-16T06:11:34.018Z,14.10
2018-08-16T06:14:38.402Z,14.20
2018-08-16T06:17:42.744Z,14.30
2018-08-16T06:20:47.354Z,14.50
2018-08-16T06:23:51.877Z,14.60
2018-08-16T06:26:56.482Z,14.80
2018-08-16T06:30:01.088Z,15.00
2018-08-16T06:33:06.113Z,15.70
2018-08-16T06:36:10.815Z,16.20
2018-08-16T06:39:15.594Z,17.70
2018-08-16T06:42:20.341Z,20.00
2018-08-16T06:45:25.185Z,21.10
2018-08-16T06:48:29.720Z,22.80
2018-08-16T06:51:34.963Z,24.00
2018-08-16T06:54:39.969Z,25.10
2018-08-16T06:57:44.519Z,25.80
2018-08-16T07:00:49.145Z,26.60
2018-08-16T07:03:53.978Z,26.80
2018-08-16T07:06:58.824Z,27.90
2018-08-16T07:10:03.579Z,27.90
2018-08-16T07:13:08.872Z,27.50
2018-08-16T07:16:13.473Z,27.90
2018-08-16T07:19:18.197Z,28.80
2018-08-16T07:22:22.655Z,29.60
2018-08-16T07:25:27.126Z,27.70
2018-08-16T07:28:31.807Z,27.70
2018-08-16T07:31:36.234Z,26.40
2018-08-16T07:34:41.645Z,26.50
2018-08-16T07:37:46.463Z,27.10
2018-08-16T07:40:51.123Z,28.80
2018-08-16T07:43:55.528Z,29.10
2018-08-16T07:47:01.967Z,28.70
2018-08-16T07:50:08.493Z,28.40
2018-08-16T07:53:13.818Z,28.10
2018-08-16T07:56:18.437Z,28.30
2018-08-16T07:59:24.508Z,30.10
2018-08-16T08:02:29.233Z,30.60
2018-08-16T08:05:33.993Z,31.70
2018-08-16T08:08:38.654Z,30.70
2018-08-16T08:11:43.332Z,30.80
2018-08-16T08:14:47.850Z,30.30
2018-08-16T08:17:52.515Z,29.30
2018-08-16T08:20:57.172Z,29.50
2018-08-16T08:24:01.770Z,30.00
2018-08-16T08:27:08.201Z,30.60
2018-08-16T08:30:20.208Z,30.90
2018-08-16T08:33:24.793Z,31.50
2018-08-16T08:36:41.554Z,30.80
2018-08-16T08:39:46.409Z,30.40
2018-08-16T08:42:52.128Z,31.20
2018-08-16T08:45:56.774Z,31.40
2018-08-16T08:49:01.509Z,31.90
2018-08-16T08:52:06.117Z,31.60
2018-08-16T08:55:21.894Z,31.80
2018-08-16T08:58:50.120Z,32.50
2018-08-16T09:01:55.437Z,33.10
2018-08-16T09:05:00.357Z,33.30
2018-08-16T09:08:11.531Z,32.00
2018-08-16T09:11:27.222Z,31.90
2018-08-16T09:14:43.081Z,33.20
2018-08-16T09:17:47.860Z,33.60
2018-08-16T09:20:52.414Z,33.00
2018-08-16T09:24:01.722Z,33.50
2018-08-16T09:27:13.212Z,33.30
2018-08-16T09:30:28.887Z,33.50
2018-08-16T09:33:44.582Z,33.80
2018-08-16T09:36:49.080Z,34.00
2018-08-16T09:39:53.497Z,34.00
2018-08-16T09:42:57.785Z,33.80
2018-08-16T09:47:17.349Z,33.70
2018-08-16T09:50:21.978Z,34.20
2018-08-16T09:53:26.613Z,34.00
2018-08-16T09:56:31.645Z,33.80
2018-08-16T09:59:36.266Z,33.60
2018-08-16T10:02:40.984Z,33.50
2018-08-16T10:05:45.591Z,32.80
2018-08-16T10:08:50.223Z,33.60
2018-08-16T10:11:55.537Z,34.10
2018-08-16T10:15:00.139Z,33.60
2018-08-16T10:18:05.169Z,34.10
2018-08-16T10:21:10.752Z,33.90
2018-08-16T10:24:15.403Z,32.50
2018-08-16T10:27:19.831Z,32.70
2018-08-16T10:30:24.494Z,32.80
2018-08-16T10:33:29.104Z,32.80
2018-08-16T10:36:33.797Z,33.20
2018-08-16T10:39:39.909Z,33.30
2018-08-16T10:42:44.613Z,33.90
2018-08-16T10:45:49.524Z,33.90
2018-08-16T10:48:54.193Z,33.70
2018-08-16T10:51:58.832Z,33.20
2018-08-16T10:55:03.392Z,33.00
2018-08-16T10:58:14.108Z,33.60
2018-08-16T11:01:18.642Z,33.30
2018-08-16T11:04:23.396Z,33.10
2018-08-16T11:07:27.984Z,33.30
2018-08-16T11:10:33.121Z,32.70
2018-08-16T11:13:37.588Z,32.90
2018-08-16T11:16:41.964Z,32.80
2018-08-16T11:19:46.671Z,33.30
2018-08-16T11:22:51.112Z,33.10
2018-08-16T11:25:55.802Z,33.10
2018-08-16T11:29:00.355Z,32.50
2018-08-16T11:32:04.896Z,32.50
2018-08-16T11:35:09.466Z,31.80
2018-08-16T11:38:13.665Z,32.00
2018-08-16T11:41:17.982Z,31.60
2018-08-16T11:44:22.496Z,31.10
2018-08-16T11:47:26.740Z,31.40
2018-08-16T11:50:31.210Z,31.20
2018-08-16T11:53:35.719Z,31.00
2018-08-16T11:56:41.072Z,30.50
2018-08-16T11:59:45.512Z,30.60
2018-08-16T12:02:50.132Z,30.60
2018-08-16T12:05:55.387Z,30.30
2018-08-16T12:08:59.986Z,29.80
2018-08-16T12:12:04.905Z,29.60
2018-08-16T12:15:09.880Z,29.70
2018-08-16T12:18:14.259Z,29.60
2018-08-16T12:21:18.941Z,29.70
2018-08-16T12:24:23.820Z,29.50
2018-08-16T12:27:28.397Z,29.00
2018-08-16T12:30:33.091Z,28.90
2018-08-16T12:33:38.425Z,29.00
2018-08-16T12:36:43.022Z,29.10
2018-08-16T12:39:48.283Z,28.60
2018-08-16T12:42:52.891Z,28.60
2018-08-16T12:45:57.494Z,28.60
2018-08-16T12:49:01.982Z,28.60
2018-08-16T12:52:07.834Z,28.90
2018-08-16T12:55:13.113Z,28.90
2018-08-16T12:58:17.755Z,28.80
2018-08-16T13:01:22.128Z,28.90
2018-08-16T13:04:26.584Z,29.00
2018-08-16T13:07:31.001Z,28.80
2018-08-16T13:10:35.737Z,28.80
2018-08-16T13:13:40.296Z,29.10
2018-08-16T13:16:45.211Z,29.00
2018-08-16T13:19:49.817Z,28.90
2018-08-16T13:22:54.514Z,28.80
2018-08-16T13:25:59.316Z,28.40
2018-08-16T13:29:04.577Z,28.50
2018-08-16T13:32:09.839Z,28.50
2018-08-16T13:35:14.560Z,28.30
2018-08-16T13:38:19.160Z,28.50
2018-08-16T13:41:23.744Z,28.60
2018-08-16T13:44:28.414Z,29.10
2018-08-16T13:47:33.249Z,29.20
2018-08-16T13:50:38.669Z,29.10
2018-08-16T13:53:46.018Z,29.00
2018-08-16T13:56:51.753Z,29.30
2018-08-16T13:59:56.477Z,29.30
2018-08-16T14:03:02.759Z,29.40
2018-08-16T14:06:07.943Z,29.30
2018-08-16T14:09:13.148Z,29.10
2018-08-16T14:12:17.567Z,29.20
2018-08-16T14:15:22.256Z,29.40
2018-08-16T14:18:27.287Z,29.50
2018-08-16T14:21:33.040Z,29.40
2018-08-16T14:24:37.530Z,29.40
2018-08-16T14:27:42.110Z,29.50
2018-08-16T14:30:46.502Z,29.60
2018-08-16T14:33:51.447Z,29.50
2018-08-16T14:36:55.702Z,29.30
2018-08-16T14:40:00.552Z,29.20
2018-08-16T14:43:05.254Z,29.10
2018-08-16T14:46:09.662Z,29.10
2018-08-16T14:49:14.092Z,29.30
2018-08-16T14:52:18.622Z,29.20
2018-08-16T14:55:23.021Z,29.30
2018-08-16T14:58:27.457Z,29.30
2018-08-16T15:01:31.979Z,29.40
2018-08-16T15:04:36.618Z,29.50
2018-08-16T15:07:41.287Z,29.50
2018-08-16T15:10:46.185Z,29.50
2018-08-16T15:13:50.818Z,29.50
2018-08-16T15:16:55.412Z,29.30
2018-08-16T15:20:00.281Z,29.30
2018-08-16T15:23:05.183Z,29.00
2018-08-16T15:26:09.937Z,28.90
2018-08-16T15:29:14.335Z,28.90
2018-08-16T15:32:20.388Z,28.80
2018-08-16T15:35:24.887Z,28.80
2018-08-16T15:38:29.525Z,29.00
2018-08-16T15:41:33.885Z,29.10
2018-08-16T15:44:39.008Z,29.20
2018-08-16T15:47:43.652Z,29.10
2018-08-16T15:50:48.239Z,29.00
2018-08-16T15:53:52.659Z,29.10
2018-08-16T15:56:57.217Z,29.10
2018-08-16T16:00:01.580Z,29.10
2018-08-16T16:03:06.054Z,29.00
2018-08-16T16:06:10.977Z,28.90
2018-08-16T16:09:15.341Z,28.80
2018-08-16T16:12:19.670Z,28.70
2018-08-16T16:15:24.398Z,28.70
2018-08-16T16:18:28.725Z,28.60
2018-08-16T16:21:33.363Z,28.50
2018-08-16T16:24:38.375Z,28.50
2018-08-16T16:27:43.225Z,28.60
2018-08-16T16:30:47.771Z,28.60
2018-08-16T16:33:52.551Z,28.50
2018-08-16T16:36:57.164Z,28.70
2018-08-16T16:40:01.687Z,28.80
2018-08-16T16:43:06.575Z,28.70
2018-08-16T16:46:10.939Z,28.70
2018-08-16T16:49:19.557Z,28.50
2018-08-16T16:52:24.073Z,28.50
2018-08-16T16:55:28.777Z,28.50
2018-08-16T16:58:33.251Z,28.40
2018-08-16T17:01:37.661Z,28.40
2018-08-16T17:04:42.402Z,28.30
2018-08-16T17:07:47.105Z,28.30
2018-08-16T17:10:51.725Z,28.30
2018-08-16T17:13:56.103Z,28.20
2018-08-16T17:17:00.639Z,28.10
2018-08-16T17:20:06.466Z,28.10
2018-08-16T17:23:11.202Z,28.00
2018-08-16T17:26:15.934Z,27.90
2018-08-16T17:29:20.171Z,27.90
2018-08-16T17:32:24.686Z,27.70
2018-08-16T17:35:28.982Z,27.70
2018-08-16T17:38:33.302Z,27.60
2018-08-16T17:41:37.634Z,27.50
2018-08-16T17:44:41.918Z,27.40
2018-08-16T17:47:49.579Z,27.30
2018-08-16T17:50:54.110Z,27.20
2018-08-16T17:53:58.520Z,27.10
2018-08-16T17:57:03.182Z,27.00
2018-08-16T18:00:09.343Z,26.90
2018-08-16T18:03:14.357Z,26.80
2018-08-16T18:06:18.788Z,26.70
2018-08-16T18:09:23.002Z,26.50
2018-08-16T18:12:27.179Z,26.40
2018-08-16T18:15:31.905Z,26.20
2018-08-16T18:18:36.367Z,26.10
2018-08-16T18:21:40.872Z,26.00
2018-08-16T18:24:45.133Z,25.80
2018-08-16T18:27:49.661Z,25.60
2018-08-16T18:30:53.948Z,25.40
2018-08-16T18:33:58.270Z,25.10
2018-08-16T18:37:02.684Z,25.00
2018-08-16T18:40:08.261Z,24.90
2018-08-16T18:43:13.575Z,24.80
2018-08-16T18:46:17.949Z,24.60
2018-08-16T18:49:22.645Z,24.40
2018-08-16T18:52:27.440Z,24.40
2018-08-16T18:55:32.142Z,24.20
2018-08-16T18:58:36.571Z,24.00
2018-08-16T19:01:41.037Z,23.90
2018-08-16T19:04:45.987Z,23.70
2018-08-16T19:07:50.469Z,23.50
2018-08-16T19:10:54.874Z,23.40
2018-08-16T19:13:59.425Z,23.30
2018-08-16T19:17:05.611Z,23.10
2018-08-16T19:20:09.918Z,22.90
2018-08-16T19:23:14.616Z,22.80
2018-08-16T19:26:19.526Z,22.70
2018-08-16T19:29:24.722Z,22.60
2018-08-16T19:32:30.439Z,22.50
2018-08-16T19:35:35.597Z,22.40
2018-08-16T19:38:41.069Z,22.20
2018-08-16T19:41:45.822Z,22.10
2018-08-16T19:44:50.619Z,22.10
2018-08-16T19:47:54.959Z,22.00
2018-08-16T19:51:00.477Z,21.90
2018-08-16T19:54:04.985Z,21.80
2018-08-16T19:57:09.294Z,21.70
2018-08-16T20:00:15.070Z,21.60
2018-08-16T20:03:19.823Z,21.60
2018-08-16T20:06:24.242Z,21.40
2018-08-16T20:09:28.433Z,21.30
2018-08-16T20:12:32.851Z,21.30
2018-08-16T20:15:38.022Z,21.10
2018-08-16T20:18:42.635Z,21.00
2018-08-16T20:21:47.340Z,20.90
2018-08-16T20:24:52.575Z,20.80
2018-08-16T20:27:57.047Z,20.70
2018-08-16T20:31:01.531Z,20.70
2018-08-16T20:34:06.574Z,20.80
2018-08-16T20:37:11.653Z,20.70
2018-08-16T20:40:16.204Z,20.70
2018-08-16T20:43:20.700Z,20.60
2018-08-16T20:46:25.038Z,20.50
2018-08-16T20:49:29.674Z,20.60
2018-08-16T20:52:34.195Z,20.50
2018-08-16T20:55:38.624Z,20.40
2018-08-16T20:58:43.561Z,20.20
2018-08-16T21:01:47.982Z,20.20
2018-08-16T21:04:53.068Z,20.10
2018-08-16T21:07:57.584Z,20.00
2018-08-16T21:11:01.848Z,19.90
2018-08-16T21:14:07.384Z,19.90
2018-08-16T21:17:12.042Z,19.80
2018-08-16T21:20:16.436Z,19.70
2018-08-16T21:23:21.842Z,19.50
2018-08-16T21:26:26.153Z,19.40
2018-08-16T21:29:31.254Z,19.40
2018-08-16T21:32:36.003Z,19.30
2018-08-16T21:35:40.994Z,19.20
2018-08-16T21:38:45.279Z,19.20
2018-08-16T21:41:49.919Z,19.10
2018-08-16T21:44:54.185Z,19.10
2018-08-16T21:47:58.654Z,19.10
2018-08-16T21:51:03.323Z,18.90
2018-08-16T21:54:08.364Z,18.90
2018-08-16T21:57:13.949Z,18.90
2018-08-16T22:00:44.417Z,18.80
2018-08-16T22:03:48.824Z,18.80
2018-08-16T22:07:07.948Z,18.80
2018-08-16T22:10:12.281Z,18.70
2018-08-16T22:13:16.666Z,18.70
2018-08-16T22:16:20.991Z,18.70
2018-08-16T22:19:25.301Z,18.60
2018-08-16T22:22:29.669Z,18.60
2018-08-16T22:25:34.518Z,18.50
2018-08-16T22:28:39.234Z,18.40
2018-08-16T22:31:43.916Z,18.40
2018-08-16T22:34:48.895Z,18.40
2018-08-16T22:37:53.962Z,18.40
2018-08-16T22:40:58.312Z,18.30
2018-08-16T22:44:02.766Z,18.30
2018-08-16T22:47:06.912Z,18.30
2018-08-16T22:50:12.052Z,18.30
2018-08-16T22:53:16.519Z,18.20
2018-08-16T22:56:21.135Z,18.20
2018-08-16T22:59:25.624Z,18.20
2018-08-16T23:02:30.266Z,18.00
2018-08-16T23:05:35.070Z,18.00
2018-08-16T23:08:39.561Z,18.00
2018-08-16T23:11:44.728Z,18.00
2018-08-16T23:14:48.987Z,18.00
2018-08-16T23:17:53.652Z,17.90
2018-08-16T23:20:57.918Z,17.90
2018-08-16T23:24:02.632Z,17.90
2018-08-16T23:27:07.190Z,17.80
2018-08-16T23:30:15.334Z,17.80
2018-08-16T23:33:20.068Z,17.80
2018-08-16T23:36:26.557Z,17.60
2018-08-16T23:39:30.819Z,17.60
2018-08-16T23:42:35.222Z,17.50
2018-08-16T23:45:39.626Z,17.50
2018-08-16T23:48:44.001Z,17.40
2018-08-16T23:51:48.389Z,17.30
2018-08-16T23:54:52.991Z,17.20
2018-08-16T23:58:02.772Z,17.40
